KSZL/SZL METAR and TAF weather

Enter ICAO airport designator
Station Type Date Time Source
KSZL METAR 2021/04/13 20:56 UTC NOAA

KSZL 132056Z 34007KT 10SM SCT160 BKN250 16/M01 A3012 RMK AO2A SLP203 T01591012 57022 $


Station Type Date Time Source
KSZL Decoded METAR 2021/04/13 20:56 UTC NOAA

Whiteman Air Force Base, MO, United States (KSZL) 38-44N 093-33W
Apr 13, 2021 - 04:56 PM EDT / 2021.04.13 2056 UTC
Wind: from the NNW (340 degrees) at 8 MPH (7 KT):0
Visibility: 10 mile(s):0
Sky conditions: mostly cloudy
Temperature: 60.6 F (15.9 C)
Dew Point: 29.8 F (-1.2 C)
Relative Humidity: 30%
Pressure (altimeter): 30.12 in. Hg (1019 hPa)
Pressure tendency: 0.06 inches (2.2 hPa) lower than three hours ago
ob: KSZL 132056Z 34007KT 10SM SCT160 BKN250 16/M01 A3012 RMK AO2A SLP203 T01591012 57022
cycle: 21

Station Type Date Time Source
KSZL TAF 2021/04/13 20:30 UTC NOAA

TAF TAF COR KSZL 132026Z 1320/1501 33009KT 9999 SCT120 BKN200 QNH3013INS
BECMG 1323/1324 VRB06KT 9999 BKN120 BKN200 601205 QNH3009INS WND 33009KT AFT 1414 TX16/1321Z TN05/1411Z

Example: see airport list